sensor_id;sensor_type;location;lat;lon;timestamp;pressure;altitude;pressure_sealevel;temperature;humidity
60611;BME280;46439;51.164;13.572;2023-12-20T00:01:10;99844.45;;;7.55;100.00
60611;BME280;46439;51.164;13.572;2023-12-20T00:03:38;99840.23;;;7.56;100.00
60611;BME280;46439;51.164;13.572;2023-12-20T00:06:06;99834.66;;;7.58;100.00
60611;BME280;46439;51.164;13.572;2023-12-20T00:08:34;99830.29;;;7.58;100.00
60611;BME280;46439;51.164;13.572;2023-12-20T00:11:03;99834.07;;;7.56;100.00
60611;BME280;46439;51.164;13.572;2023-12-20T00:13:31;99834.99;;;7.58;100.00
60611;BME280;46439;51.164;13.572;2023-12-20T00:15:59;99827.40;;;7.57;100.00
60611;BME280;46439;51.164;13.572;2023-12-20T00:18:27;99820.23;;;7.55;100.00
60611;BME280;46439;51.164;13.572;2023-12-20T00:20:55;99817.69;;;7.56;100.00
60611;BME280;46439;51.164;13.572;2023-12-20T00:23:23;99819.94;;;7.55;100.00
60611;BME280;46439;51.164;13.572;2023-12-20T00:25:52;99815.33;;;7.54;100.00
60611;BME280;46439;51.164;13.572;2023-12-20T00:28:20;99816.86;;;7.49;100.00
60611;BME280;46439;51.164;13.572;2023-12-20T00:30:49;99820.39;;;7.45;100.00
60611;BME280;46439;51.164;13.572;2023-12-20T00:33:17;99822.08;;;7.44;100.00
60611;BME280;46439;51.164;13.572;2023-12-20T00:35:45;99814.73;;;7.46;100.00
60611;BME280;46439;51.164;13.572;2023-12-20T00:38:13;99814.89;;;7.44;100.00
60611;BME280;46439;51.164;13.572;2023-12-20T00:40:42;99806.12;;;7.41;100.00
60611;BME280;46439;51.164;13.572;2023-12-20T00:43:10;99811.41;;;7.38;100.00
60611;BME280;46439;51.164;13.572;2023-12-20T00:45:38;99807.86;;;7.34;100.00
60611;BME280;46439;51.164;13.572;2023-12-20T00:48:08;99803.67;;;7.28;100.00
60611;BME280;46439;51.164;13.572;2023-12-20T00:50:36;99800.89;;;7.27;100.00
60611;BME280;46439;51.164;13.572;2023-12-20T00:53:18;99800.02;;;7.26;100.00
60611;BME280;46439;51.164;13.572;2023-12-20T00:55:47;99797.59;;;7.25;100.00
60611;BME280;46439;51.164;13.572;2023-12-20T00:58:15;99792.93;;;7.25;100.00
60611;BME280;46439;51.164;13.572;2023-12-20T01:00:43;99793.30;;;7.25;100.00
60611;BME280;46439;51.164;13.572;2023-12-20T01:03:12;99793.39;;;7.24;100.00
60611;BME280;46439;51.164;13.572;2023-12-20T01:05:40;99787.89;;;7.22;100.00
60611;BME280;46439;51.164;13.572;2023-12-20T01:08:08;99784.52;;;7.22;100.00
60611;BME280;46439;51.164;13.572;2023-12-20T01:10:36;99777.64;;;7.19;100.00
60611;BME280;46439;51.164;13.572;2023-12-20T01:13:05;99775.92;;;7.18;100.00
60611;BME280;46439;51.164;13.572;2023-12-20T01:15:33;99776.76;;;7.19;100.00
60611;BME280;46439;51.164;13.572;2023-12-20T01:18:01;99776.61;;;7.20;100.00
60611;BME280;46439;51.164;13.572;2023-12-20T01:20:29;99775.63;;;7.21;100.00
60611;BME280;46439;51.164;13.572;2023-12-20T01:22:57;99776.02;;;7.19;100.00
60611;BME280;46439;51.164;13.572;2023-12-20T01:25:25;99772.10;;;7.19;100.00
60611;BME280;46439;51.164;13.572;2023-12-20T01:27:53;99771.55;;;7.19;100.00
60611;BME280;46439;51.164;13.572;2023-12-20T01:30:21;99769.50;;;7.17;100.00
60611;BME280;46439;51.164;13.572;2023-12-20T01:32:50;99764.66;;;7.15;100.00
60611;BME280;46439;51.164;13.572;2023-12-20T01:35:18;99762.55;;;7.15;100.00
60611;BME280;46439;51.164;13.572;2023-12-20T01:37:46;99756.39;;;7.12;100.00
60611;BME280;46439;51.164;13.572;2023-12-20T01:40:14;99754.83;;;7.09;100.00
60611;BME280;46439;51.164;13.572;2023-12-20T01:42:42;99758.37;;;7.10;100.00
60611;BME280;46439;51.164;13.572;2023-12-20T01:45:11;99756.41;;;7.06;100.00
60611;BME280;46439;51.164;13.572;2023-12-20T01:47:39;99753.04;;;7.03;100.00
60611;BME280;46439;51.164;13.572;2023-12-20T01:50:09;99746.91;;;6.99;100.00
60611;BME280;46439;51.164;13.572;2023-12-20T01:52:37;99751.13;;;7.02;100.00
60611;BME280;46439;51.164;13.572;2023-12-20T01:55:08;99751.73;;;7.03;100.00
60611;BME280;46439;51.164;13.572;2023-12-20T01:57:42;99753.14;;;7.03;100.00
60611;BME280;46439;51.164;13.572;2023-12-20T02:00:13;99749.02;;;7.02;100.00
60611;BME280;46439;51.164;13.572;2023-12-20T02:02:42;99749.38;;;7.02;100.00
60611;BME280;46439;51.164;13.572;2023-12-20T02:05:11;99746.82;;;7.01;100.00
60611;BME280;46439;51.164;13.572;2023-12-20T02:07:39;99746.54;;;6.98;100.00
60611;BME280;46439;51.164;13.572;2023-12-20T02:10:08;99741.93;;;6.96;100.00
60611;BME280;46439;51.164;13.572;2023-12-20T02:12:36;99734.63;;;6.99;100.00
60611;BME280;46439;51.164;13.572;2023-12-20T02:15:07;99734.57;;;7.00;100.00
60611;BME280;46439;51.164;13.572;2023-12-20T02:17:35;99733.66;;;7.00;100.00
60611;BME280;46439;51.164;13.572;2023-12-20T02:20:11;99733.14;;;7.03;100.00
60611;BME280;46439;51.164;13.572;2023-12-20T02:22:39;99728.61;;;7.03;100.00
60611;BME280;46439;51.164;13.572;2023-12-20T02:25:08;99728.43;;;7.03;100.00
60611;BME280;46439;51.164;13.572;2023-12-20T02:27:36;99730.27;;;7.05;100.00
60611;BME280;46439;51.164;13.572;2023-12-20T02:30:06;99731.40;;;7.04;100.00
60611;BME280;46439;51.164;13.572;2023-12-20T02:32:35;99729.04;;;7.03;100.00
60611;BME280;46439;51.164;13.572;2023-12-20T02:35:04;99734.69;;;7.02;100.00
60611;BME280;46439;51.164;13.572;2023-12-20T02:37:33;99729.54;;;7.02;100.00
60611;BME280;46439;51.164;13.572;2023-12-20T02:40:02;99730.56;;;7.02;100.00
60611;BME280;46439;51.164;13.572;2023-12-20T02:42:32;99726.73;;;7.01;100.00
60611;BME280;46439;51.164;13.572;2023-12-20T02:45:00;99725.03;;;6.97;100.00
60611;BME280;46439;51.164;13.572;2023-12-20T02:47:28;99720.60;;;6.90;100.00
60611;BME280;46439;51.164;13.572;2023-12-20T02:49:57;99723.88;;;6.87;100.00
60611;BME280;46439;51.164;13.572;2023-12-20T02:52:27;99725.92;;;6.88;100.00
60611;BME280;46439;51.164;13.572;2023-12-20T02:54:55;99727.52;;;6.88;100.00
60611;BME280;46439;51.164;13.572;2023-12-20T02:57:23;99721.70;;;6.88;100.00
60611;BME280;46439;51.164;13.572;2023-12-20T02:59:51;99718.52;;;6.90;100.00
60611;BME280;46439;51.164;13.572;2023-12-20T03:02:19;99723.98;;;6.93;100.00
60611;BME280;46439;51.164;13.572;2023-12-20T03:04:48;99723.59;;;6.91;100.00
60611;BME280;46439;51.164;13.572;2023-12-20T03:07:16;99721.81;;;6.90;100.00
60611;BME280;46439;51.164;13.572;2023-12-20T03:09:44;99718.66;;;6.92;100.00
60611;BME280;46439;51.164;13.572;2023-12-20T03:12:12;99715.80;;;6.95;100.00
60611;BME280;46439;51.164;13.572;2023-12-20T03:14:40;99716.14;;;6.96;100.00
60611;BME280;46439;51.164;13.572;2023-12-20T03:17:08;99715.57;;;6.97;100.00
60611;BME280;46439;51.164;13.572;2023-12-20T03:19:36;99719.96;;;6.96;100.00
60611;BME280;46439;51.164;13.572;2023-12-20T03:22:04;99717.52;;;6.95;100.00
60611;BME280;46439;51.164;13.572;2023-12-20T03:24:32;99710.60;;;6.95;100.00
60611;BME280;46439;51.164;13.572;2023-12-20T03:27:00;99707.50;;;6.93;100.00
60611;BME280;46439;51.164;13.572;2023-12-20T03:29:29;99701.49;;;6.92;100.00
60611;BME280;46439;51.164;13.572;2023-12-20T03:31:57;99704.73;;;6.94;100.00
60611;BME280;46439;51.164;13.572;2023-12-20T03:34:25;99700.23;;;6.95;100.00
60611;BME280;46439;51.164;13.572;2023-12-20T03:36:54;99698.48;;;6.92;100.00
60611;BME280;46439;51.164;13.572;2023-12-20T03:39:22;99695.52;;;6.90;100.00
60611;BME280;46439;51.164;13.572;2023-12-20T03:41:50;99693.07;;;6.91;100.00
60611;BME280;46439;51.164;13.572;2023-12-20T03:44:18;99692.20;;;6.91;100.00
60611;BME280;46439;51.164;13.572;2023-12-20T03:46:46;99688.41;;;6.89;100.00
60611;BME280;46439;51.164;13.572;2023-12-20T03:49:15;99693.20;;;6.88;100.00
60611;BME280;46439;51.164;13.572;2023-12-20T03:51:43;99697.11;;;6.88;100.00
60611;BME280;46439;51.164;13.572;2023-12-20T03:54:11;99697.52;;;6.89;100.00
60611;BME280;46439;51.164;13.572;2023-12-20T03:56:39;99694.11;;;6.91;100.00
60611;BME280;46439;51.164;13.572;2023-12-20T03:59:07;99693.71;;;6.93;100.00
60611;BME280;46439;51.164;13.572;2023-12-20T04:01:35;99700.52;;;6.93;100.00
60611;BME280;46439;51.164;13.572;2023-12-20T04:04:04;99699.58;;;6.92;100.00
60611;BME280;46439;51.164;13.572;2023-12-20T04:06:32;99698.02;;;6.88;100.00
60611;BME280;46439;51.164;13.572;2023-12-20T04:09:00;99693.16;;;6.88;100.00
60611;BME280;46439;51.164;13.572;2023-12-20T04:11:28;99695.80;;;6.91;100.00
60611;BME280;46439;51.164;13.572;2023-12-20T04:13:56;99697.16;;;6.90;100.00
60611;BME280;46439;51.164;13.572;2023-12-20T04:16:24;99700.52;;;6.92;100.00
60611;BME280;46439;51.164;13.572;2023-12-20T04:18:52;99698.65;;;6.87;100.00
60611;BME280;46439;51.164;13.572;2023-12-20T04:21:20;99691.78;;;6.78;100.00
60611;BME280;46439;51.164;13.572;2023-12-20T04:23:48;99694.20;;;6.79;100.00
60611;BME280;46439;51.164;13.572;2023-12-20T04:26:16;99694.27;;;6.86;100.00
60611;BME280;46439;51.164;13.572;2023-12-20T04:28:45;99696.52;;;6.89;100.00
60611;BME280;46439;51.164;13.572;2023-12-20T04:31:13;99698.00;;;6.90;100.00
60611;BME280;46439;51.164;13.572;2023-12-20T04:33:41;99695.49;;;6.92;100.00
60611;BME280;46439;51.164;13.572;2023-12-20T04:36:09;99697.41;;;6.94;100.00
60611;BME280;46439;51.164;13.572;2023-12-20T04:38:38;99697.66;;;6.91;100.00
60611;BME280;46439;51.164;13.572;2023-12-20T04:41:06;99703.78;;;6.93;100.00
60611;BME280;46439;51.164;13.572;2023-12-20T04:43:34;99701.44;;;6.95;100.00
60611;BME280;46439;51.164;13.572;2023-12-20T04:46:02;99696.73;;;6.92;100.00
60611;BME280;46439;51.164;13.572;2023-12-20T04:48:30;99700.74;;;6.88;100.00
60611;BME280;46439;51.164;13.572;2023-12-20T04:50:58;99701.41;;;6.88;100.00
60611;BME280;46439;51.164;13.572;2023-12-20T04:53:26;99704.21;;;6.91;100.00
60611;BME280;46439;51.164;13.572;2023-12-20T04:55:55;99703.67;;;6.91;100.00
60611;BME280;46439;51.164;13.572;2023-12-20T04:58:23;99703.01;;;6.92;100.00
60611;BME280;46439;51.164;13.572;2023-12-20T05:00:52;99706.95;;;6.93;100.00
60611;BME280;46439;51.164;13.572;2023-12-20T05:03:20;99706.99;;;6.93;100.00
60611;BME280;46439;51.164;13.572;2023-12-20T05:05:48;99703.77;;;6.91;100.00
60611;BME280;46439;51.164;13.572;2023-12-20T05:08:52;99710.83;;;6.92;100.00
60611;BME280;46439;51.164;13.572;2023-12-20T05:11:20;99714.80;;;6.83;100.00
60611;BME280;46439;51.164;13.572;2023-12-20T05:13:48;99714.16;;;6.76;100.00
60611;BME280;46439;51.164;13.572;2023-12-20T05:16:16;99716.23;;;6.78;100.00
60611;BME280;46439;51.164;13.572;2023-12-20T05:18:48;99719.80;;;6.89;100.00
60611;BME280;46439;51.164;13.572;2023-12-20T05:21:18;99715.92;;;6.90;100.00
60611;BME280;46439;51.164;13.572;2023-12-20T05:23:46;99719.68;;;6.93;100.00
60611;BME280;46439;51.164;13.572;2023-12-20T05:26:14;99722.55;;;6.98;100.00
60611;BME280;46439;51.164;13.572;2023-12-20T05:28:42;99725.38;;;7.00;100.00
60611;BME280;46439;51.164;13.572;2023-12-20T05:31:10;99721.05;;;7.01;100.00
60611;BME280;46439;51.164;13.572;2023-12-20T05:33:38;99724.50;;;7.00;100.00
60611;BME280;46439;51.164;13.572;2023-12-20T05:36:07;99723.16;;;6.99;100.00
60611;BME280;46439;51.164;13.572;2023-12-20T05:38:39;99724.80;;;6.99;100.00
60611;BME280;46439;51.164;13.572;2023-12-20T05:41:07;99721.38;;;6.97;100.00
60611;BME280;46439;51.164;13.572;2023-12-20T05:43:35;99718.95;;;6.95;100.00
60611;BME280;46439;51.164;13.572;2023-12-20T05:46:03;99719.55;;;6.93;100.00
60611;BME280;46439;51.164;13.572;2023-12-20T05:48:31;99732.77;;;6.93;100.00
60611;BME280;46439;51.164;13.572;2023-12-20T05:51:00;99736.61;;;6.92;100.00
60611;BME280;46439;51.164;13.572;2023-12-20T05:53:28;99744.21;;;6.95;100.00
60611;BME280;46439;51.164;13.572;2023-12-20T05:55:56;99747.58;;;6.97;100.00
60611;BME280;46439;51.164;13.572;2023-12-20T05:58:24;99754.53;;;7.00;100.00
60611;BME280;46439;51.164;13.572;2023-12-20T06:00:52;99754.63;;;7.00;100.00
60611;BME280;46439;51.164;13.572;2023-12-20T06:03:20;99755.67;;;6.95;100.00
60611;BME280;46439;51.164;13.572;2023-12-20T06:05:48;99759.96;;;6.93;100.00
60611;BME280;46439;51.164;13.572;2023-12-20T06:08:16;99760.45;;;6.91;100.00
60611;BME280;46439;51.164;13.572;2023-12-20T06:10:44;99753.45;;;6.92;100.00
60611;BME280;46439;51.164;13.572;2023-12-20T06:13:12;99746.04;;;6.98;100.00
60611;BME280;46439;51.164;13.572;2023-12-20T06:15:41;99747.15;;;6.99;100.00
60611;BME280;46439;51.164;13.572;2023-12-20T06:18:09;99753.25;;;6.99;100.00
60611;BME280;46439;51.164;13.572;2023-12-20T06:20:38;99756.68;;;7.00;100.00
60611;BME280;46439;51.164;13.572;2023-12-20T06:23:06;99756.30;;;7.06;100.00
60611;BME280;46439;51.164;13.572;2023-12-20T06:25:34;99765.58;;;7.09;100.00
60611;BME280;46439;51.164;13.572;2023-12-20T06:28:02;99764.80;;;7.10;100.00
60611;BME280;46439;51.164;13.572;2023-12-20T06:30:30;99774.11;;;7.11;100.00
60611;BME280;46439;51.164;13.572;2023-12-20T06:33:00;99777.15;;;7.00;100.00
60611;BME280;46439;51.164;13.572;2023-12-20T06:35:28;99781.00;;;7.00;100.00
60611;BME280;46439;51.164;13.572;2023-12-20T06:37:57;99779.02;;;7.13;100.00
60611;BME280;46439;51.164;13.572;2023-12-20T06:40:25;99773.98;;;7.15;100.00
60611;BME280;46439;51.164;13.572;2023-12-20T06:42:53;99779.79;;;7.14;100.00
60611;BME280;46439;51.164;13.572;2023-12-20T06:45:22;99781.52;;;7.16;100.00
60611;BME280;46439;51.164;13.572;2023-12-20T06:47:50;99785.70;;;7.14;100.00
60611;BME280;46439;51.164;13.572;2023-12-20T06:50:18;99790.98;;;7.17;100.00
60611;BME280;46439;51.164;13.572;2023-12-20T06:52:46;99794.24;;;7.19;100.00
60611;BME280;46439;51.164;13.572;2023-12-20T06:55:14;99805.10;;;7.23;100.00
60611;BME280;46439;51.164;13.572;2023-12-20T06:57:42;99796.90;;;7.21;100.00
60611;BME280;46439;51.164;13.572;2023-12-20T07:00:13;99790.06;;;7.23;100.00
60611;BME280;46439;51.164;13.572;2023-12-20T07:02:41;99788.06;;;7.27;100.00
60611;BME280;46439;51.164;13.572;2023-12-20T07:05:09;99786.98;;;7.32;100.00
60611;BME280;46439;51.164;13.572;2023-12-20T07:07:37;99781.23;;;7.36;100.00
60611;BME280;46439;51.164;13.572;2023-12-20T07:10:07;99781.40;;;7.39;100.00
60611;BME280;46439;51.164;13.572;2023-12-20T07:12:35;99785.86;;;7.46;100.00
60611;BME280;46439;51.164;13.572;2023-12-20T07:15:05;99790.60;;;7.47;100.00
60611;BME280;46439;51.164;13.572;2023-12-20T07:17:34;99795.52;;;7.45;100.00
60611;BME280;46439;51.164;13.572;2023-12-20T07:20:03;99794.95;;;7.30;100.00
60611;BME280;46439;51.164;13.572;2023-12-20T07:22:32;99797.23;;;7.25;100.00
60611;BME280;46439;51.164;13.572;2023-12-20T07:25:00;99802.17;;;7.19;100.00
60611;BME280;46439;51.164;13.572;2023-12-20T07:27:28;99797.63;;;7.20;100.00
60611;BME280;46439;51.164;13.572;2023-12-20T07:29:57;99794.58;;;7.20;100.00
60611;BME280;46439;51.164;13.572;2023-12-20T07:32:25;99796.25;;;7.19;100.00
60611;BME280;46439;51.164;13.572;2023-12-20T07:34:53;99794.27;;;7.21;100.00
60611;BME280;46439;51.164;13.572;2023-12-20T07:37:22;99800.22;;;7.20;100.00
60611;BME280;46439;51.164;13.572;2023-12-20T07:39:50;99801.67;;;7.22;100.00
60611;BME280;46439;51.164;13.572;2023-12-20T07:42:18;99798.09;;;7.24;100.00
60611;BME280;46439;51.164;13.572;2023-12-20T07:44:46;99789.54;;;7.25;100.00
60611;BME280;46439;51.164;13.572;2023-12-20T07:47:14;99784.84;;;7.27;100.00
60611;BME280;46439;51.164;13.572;2023-12-20T07:49:46;99778.91;;;7.27;100.00
60611;BME280;46439;51.164;13.572;2023-12-20T07:52:14;99787.56;;;7.27;100.00
60611;BME280;46439;51.164;13.572;2023-12-20T07:54:42;99785.23;;;7.28;100.00
60611;BME280;46439;51.164;13.572;2023-12-20T07:57:11;99785.70;;;7.31;100.00
60611;BME280;46439;51.164;13.572;2023-12-20T07:59:39;99789.55;;;7.38;100.00
60611;BME280;46439;51.164;13.572;2023-12-20T08:02:07;99792.33;;;7.34;100.00
60611;BME280;46439;51.164;13.572;2023-12-20T08:04:36;99791.73;;;7.30;100.00
60611;BME280;46439;51.164;13.572;2023-12-20T08:07:04;99790.05;;;7.25;100.00
60611;BME280;46439;51.164;13.572;2023-12-20T08:09:32;99794.57;;;7.23;100.00
60611;BME280;46439;51.164;13.572;2023-12-20T08:12:02;99801.48;;;7.20;100.00
60611;BME280;46439;51.164;13.572;2023-12-20T08:14:30;99803.30;;;7.17;100.00
60611;BME280;46439;51.164;13.572;2023-12-20T08:16:59;99795.70;;;7.14;100.00
60611;BME280;46439;51.164;13.572;2023-12-20T08:19:27;99802.25;;;7.15;100.00
60611;BME280;46439;51.164;13.572;2023-12-20T08:21:55;99805.45;;;7.15;100.00
60611;BME280;46439;51.164;13.572;2023-12-20T08:24:23;99802.16;;;7.12;100.00
60611;BME280;46439;51.164;13.572;2023-12-20T08:26:51;99803.23;;;7.10;100.00
60611;BME280;46439;51.164;13.572;2023-12-20T08:29:20;99797.47;;;7.12;100.00
60611;BME280;46439;51.164;13.572;2023-12-20T08:31:53;99791.19;;;7.16;100.00
60611;BME280;46439;51.164;13.572;2023-12-20T08:34:22;99786.98;;;7.22;100.00
60611;BME280;46439;51.164;13.572;2023-12-20T08:36:51;99790.92;;;7.27;100.00
60611;BME280;46439;51.164;13.572;2023-12-20T08:39:19;99789.13;;;7.29;100.00
60611;BME280;46439;51.164;13.572;2023-12-20T08:41:47;99783.87;;;7.31;100.00
60611;BME280;46439;51.164;13.572;2023-12-20T08:44:16;99785.98;;;7.42;100.00
60611;BME280;46439;51.164;13.572;2023-12-20T08:46:44;99789.40;;;7.48;100.00
60611;BME280;46439;51.164;13.572;2023-12-20T08:49:12;99789.37;;;7.50;100.00
60611;BME280;46439;51.164;13.572;2023-12-20T08:51:40;99789.71;;;7.52;100.00
60611;BME280;46439;51.164;13.572;2023-12-20T08:54:09;99792.01;;;7.58;100.00
60611;BME280;46439;51.164;13.572;2023-12-20T08:56:37;99791.84;;;7.58;100.00
60611;BME280;46439;51.164;13.572;2023-12-20T08:59:05;99791.26;;;7.55;100.00
60611;BME280;46439;51.164;13.572;2023-12-20T09:01:33;99789.74;;;7.54;100.00
60611;BME280;46439;51.164;13.572;2023-12-20T09:04:01;99788.04;;;7.53;100.00
60611;BME280;46439;51.164;13.572;2023-12-20T09:06:29;99783.80;;;7.54;100.00
60611;BME280;46439;51.164;13.572;2023-12-20T09:08:57;99781.48;;;7.54;100.00
60611;BME280;46439;51.164;13.572;2023-12-20T09:11:25;99785.42;;;7.57;100.00
60611;BME280;46439;51.164;13.572;2023-12-20T09:13:53;99789.66;;;7.60;100.00
60611;BME280;46439;51.164;13.572;2023-12-20T09:16:22;99789.23;;;7.62;100.00
60611;BME280;46439;51.164;13.572;2023-12-20T09:18:50;99794.02;;;7.62;100.00
60611;BME280;46439;51.164;13.572;2023-12-20T09:21:19;99792.38;;;7.59;100.00
60611;BME280;46439;51.164;13.572;2023-12-20T09:23:47;99785.39;;;7.59;100.00
60611;BME280;46439;51.164;13.572;2023-12-20T09:26:15;99786.71;;;7.57;100.00
60611;BME280;46439;51.164;13.572;2023-12-20T09:28:44;99784.27;;;7.56;100.00
60611;BME280;46439;51.164;13.572;2023-12-20T09:31:12;99783.41;;;7.58;100.00
60611;BME280;46439;51.164;13.572;2023-12-20T09:33:40;99785.36;;;7.60;100.00
60611;BME280;46439;51.164;13.572;2023-12-20T09:36:09;99787.18;;;7.62;100.00
60611;BME280;46439;51.164;13.572;2023-12-20T09:38:37;99787.60;;;7.67;100.00
60611;BME280;46439;51.164;13.572;2023-12-20T09:41:06;99777.50;;;7.73;100.00
60611;BME280;46439;51.164;13.572;2023-12-20T09:43:37;99777.39;;;7.79;100.00
60611;BME280;46439;51.164;13.572;2023-12-20T09:46:06;99772.13;;;7.84;100.00
60611;BME280;46439;51.164;13.572;2023-12-20T09:48:36;99771.59;;;7.93;100.00
60611;BME280;46439;51.164;13.572;2023-12-20T09:51:05;99762.89;;;7.99;100.00
60611;BME280;46439;51.164;13.572;2023-12-20T09:53:35;99761.19;;;8.04;100.00
60611;BME280;46439;51.164;13.572;2023-12-20T09:56:07;99767.95;;;8.05;100.00
60611;BME280;46439;51.164;13.572;2023-12-20T09:58:37;99769.02;;;8.05;100.00
60611;BME280;46439;51.164;13.572;2023-12-20T10:01:07;99772.64;;;8.06;100.00
60611;BME280;46439;51.164;13.572;2023-12-20T10:03:36;99770.13;;;8.15;100.00
60611;BME280;46439;51.164;13.572;2023-12-20T10:06:08;99769.45;;;8.24;100.00
60611;BME280;46439;51.164;13.572;2023-12-20T10:08:37;99769.73;;;8.23;100.00
60611;BME280;46439;51.164;13.572;2023-12-20T10:11:06;99764.65;;;8.22;100.00
60611;BME280;46439;51.164;13.572;2023-12-20T10:13:34;99754.97;;;8.24;100.00
60611;BME280;46439;51.164;13.572;2023-12-20T10:16:02;99754.52;;;8.26;100.00
60611;BME280;46439;51.164;13.572;2023-12-20T10:18:31;99748.61;;;8.28;100.00
60611;BME280;46439;51.164;13.572;2023-12-20T10:21:00;99758.80;;;8.30;100.00
60611;BME280;46439;51.164;13.572;2023-12-20T10:23:35;99761.56;;;8.19;100.00
60611;BME280;46439;51.164;13.572;2023-12-20T10:26:04;99761.20;;;8.21;100.00
60611;BME280;46439;51.164;13.572;2023-12-20T10:28:35;99755.27;;;8.27;100.00
60611;BME280;46439;51.164;13.572;2023-12-20T10:31:03;99746.90;;;8.34;100.00
60611;BME280;46439;51.164;13.572;2023-12-20T10:33:32;99737.58;;;8.35;100.00
60611;BME280;46439;51.164;13.572;2023-12-20T10:36:00;99736.95;;;8.38;100.00
60611;BME280;46439;51.164;13.572;2023-12-20T10:38:28;99730.12;;;8.39;100.00
60611;BME280;46439;51.164;13.572;2023-12-20T10:41:00;99729.80;;;8.43;100.00
60611;BME280;46439;51.164;13.572;2023-12-20T10:43:29;99724.82;;;8.42;100.00
60611;BME280;46439;51.164;13.572;2023-12-20T10:45:58;99722.98;;;8.51;100.00
60611;BME280;46439;51.164;13.572;2023-12-20T10:48:27;99717.82;;;8.57;100.00
60611;BME280;46439;51.164;13.572;2023-12-20T10:50:58;99716.31;;;8.60;100.00
60611;BME280;46439;51.164;13.572;2023-12-20T10:53:27;99722.23;;;8.67;100.00
60611;BME280;46439;51.164;13.572;2023-12-20T10:55:56;99716.77;;;8.70;100.00
60611;BME280;46439;51.164;13.572;2023-12-20T10:58:29;99715.71;;;8.72;100.00
60611;BME280;46439;51.164;13.572;2023-12-20T11:01:01;99712.27;;;8.78;100.00
60611;BME280;46439;51.164;13.572;2023-12-20T11:03:36;99707.79;;;8.81;100.00
60611;BME280;46439;51.164;13.572;2023-12-20T11:06:25;99703.84;;;8.84;100.00
60611;BME280;46439;51.164;13.572;2023-12-20T11:09:01;99703.52;;;8.79;100.00
60611;BME280;46439;51.164;13.572;2023-12-20T11:11:56;99702.73;;;8.75;100.00
60611;BME280;46439;51.164;13.572;2023-12-20T11:14:31;99700.60;;;8.66;100.00
60611;BME280;46439;51.164;13.572;2023-12-20T11:17:10;99697.34;;;8.65;100.00
60611;BME280;46439;51.164;13.572;2023-12-20T11:20:05;99699.93;;;8.56;100.00
60611;BME280;46439;51.164;13.572;2023-12-20T11:22:33;99703.60;;;8.49;100.00
60611;BME280;46439;51.164;13.572;2023-12-20T11:25:06;99703.88;;;8.45;100.00
60611;BME280;46439;51.164;13.572;2023-12-20T11:27:41;99705.67;;;8.55;100.00
60611;BME280;46439;51.164;13.572;2023-12-20T11:30:13;99696.52;;;8.58;100.00
60611;BME280;46439;51.164;13.572;2023-12-20T11:32:42;99692.46;;;8.56;100.00
60611;BME280;46439;51.164;13.572;2023-12-20T11:35:20;99683.92;;;8.54;100.00
60611;BME280;46439;51.164;13.572;2023-12-20T11:37:49;99682.79;;;8.49;100.00
60611;BME280;46439;51.164;13.572;2023-12-20T11:40:19;99678.66;;;8.46;100.00
60611;BME280;46439;51.164;13.572;2023-12-20T11:42:51;99679.67;;;8.43;100.00
60611;BME280;46439;51.164;13.572;2023-12-20T11:45:25;99675.60;;;8.44;100.00
60611;BME280;46439;51.164;13.572;2023-12-20T11:47:53;99668.80;;;8.46;100.00
60611;BME280;46439;51.164;13.572;2023-12-20T11:50:23;99666.09;;;8.48;100.00
60611;BME280;46439;51.164;13.572;2023-12-20T11:52:52;99657.93;;;8.50;100.00
60611;BME280;46439;51.164;13.572;2023-12-20T11:55:22;99657.27;;;8.56;100.00
60611;BME280;46439;51.164;13.572;2023-12-20T11:57:51;99652.91;;;8.61;100.00
60611;BME280;46439;51.164;13.572;2023-12-20T12:00:20;99647.67;;;8.54;100.00
60611;BME280;46439;51.164;13.572;2023-12-20T12:02:59;99649.13;;;8.58;100.00
60611;BME280;46439;51.164;13.572;2023-12-20T12:05:27;99648.53;;;8.63;100.00
60611;BME280;46439;51.164;13.572;2023-12-20T12:07:55;99640.63;;;8.69;100.00
60611;BME280;46439;51.164;13.572;2023-12-20T12:10:24;99631.64;;;8.73;100.00
60611;BME280;46439;51.164;13.572;2023-12-20T12:12:52;99629.48;;;8.80;100.00
60611;BME280;46439;51.164;13.572;2023-12-20T12:15:20;99627.91;;;8.84;100.00
60611;BME280;46439;51.164;13.572;2023-12-20T12:17:55;99620.76;;;9.00;100.00
60611;BME280;46439;51.164;13.572;2023-12-20T12:20:24;99617.44;;;9.14;100.00
60611;BME280;46439;51.164;13.572;2023-12-20T12:23:00;99618.05;;;9.18;100.00
60611;BME280;46439;51.164;13.572;2023-12-20T12:25:30;99614.66;;;9.23;100.00
60611;BME280;46439;51.164;13.572;2023-12-20T12:27:59;99611.66;;;9.18;100.00
60611;BME280;46439;51.164;13.572;2023-12-20T12:30:28;99599.03;;;9.09;100.00
60611;BME280;46439;51.164;13.572;2023-12-20T12:32:57;99600.42;;;9.07;100.00
60611;BME280;46439;51.164;13.572;2023-12-20T12:35:28;99596.35;;;9.01;100.00
60611;BME280;46439;51.164;13.572;2023-12-20T12:37:58;99592.02;;;9.00;100.00
60611;BME280;46439;51.164;13.572;2023-12-20T12:40:26;99596.20;;;9.02;100.00
60611;BME280;46439;51.164;13.572;2023-12-20T12:42:55;99594.40;;;9.06;100.00
60611;BME280;46439;51.164;13.572;2023-12-20T12:45:23;99589.88;;;9.03;100.00
60611;BME280;46439;51.164;13.572;2023-12-20T12:47:53;99586.05;;;9.02;100.00
60611;BME280;46439;51.164;13.572;2023-12-20T12:50:22;99578.27;;;9.04;100.00
60611;BME280;46439;51.164;13.572;2023-12-20T12:52:51;99581.21;;;9.05;100.00
60611;BME280;46439;51.164;13.572;2023-12-20T12:55:19;99569.55;;;9.03;100.00
60611;BME280;46439;51.164;13.572;2023-12-20T12:57:47;99576.16;;;9.07;100.00
60611;BME280;46439;51.164;13.572;2023-12-20T13:00:16;99564.86;;;9.05;100.00